sensor_id;sensor_type;location;lat;lon;timestamp;P1;durP1;ratioP1;P2;durP2;ratioP2
59504;SDS011;45321;53.200;5.814;2023-02-13T00:02:18;24.05;;;19.10;;
59504;SDS011;45321;53.200;5.814;2023-02-13T00:04:44;26.08;;;20.50;;
59504;SDS011;45321;53.200;5.814;2023-02-13T00:07:13;27.50;;;19.50;;
59504;SDS011;45321;53.200;5.814;2023-02-13T00:09:38;24.33;;;18.92;;
59504;SDS011;45321;53.200;5.814;2023-02-13T00:12:05;26.30;;;18.90;;
59504;SDS011;45321;53.200;5.814;2023-02-13T00:14:35;25.40;;;19.05;;
59504;SDS011;45321;53.200;5.814;2023-02-13T00:17:02;27.33;;;19.85;;
59504;SDS011;45321;53.200;5.814;2023-02-13T00:19:28;27.17;;;20.13;;
59504;SDS011;45321;53.200;5.814;2023-02-13T00:21:54;27.10;;;19.63;;
59504;SDS011;45321;53.200;5.814;2023-02-13T00:24:20;25.42;;;19.48;;
59504;SDS011;45321;53.200;5.814;2023-02-13T00:26:46;25.08;;;19.08;;
59504;SDS011;45321;53.200;5.814;2023-02-13T00:29:11;29.58;;;19.23;;
59504;SDS011;45321;53.200;5.814;2023-02-13T00:31:37;26.13;;;20.13;;
59504;SDS011;45321;53.200;5.814;2023-02-13T00:34:03;27.00;;;19.80;;
59504;SDS011;45321;53.200;5.814;2023-02-13T00:36:29;28.27;;;20.00;;
59504;SDS011;45321;53.200;5.814;2023-02-13T00:38:54;24.88;;;19.17;;
59504;SDS011;45321;53.200;5.814;2023-02-13T00:41:20;27.52;;;19.90;;
59504;SDS011;45321;53.200;5.814;2023-02-13T00:43:47;26.05;;;19.00;;
59504;SDS011;45321;53.200;5.814;2023-02-13T00:46:13;26.83;;;20.70;;
59504;SDS011;45321;53.200;5.814;2023-02-13T00:48:40;28.02;;;20.30;;
59504;SDS011;45321;53.200;5.814;2023-02-13T00:51:06;24.80;;;19.63;;
59504;SDS011;45321;53.200;5.814;2023-02-13T00:53:32;29.45;;;20.73;;
59504;SDS011;45321;53.200;5.814;2023-02-13T00:55:59;30.80;;;21.55;;
59504;SDS011;45321;53.200;5.814;2023-02-13T00:58:25;27.70;;;20.60;;
59504;SDS011;45321;53.200;5.814;2023-02-13T01:00:51;26.30;;;20.55;;
59504;SDS011;45321;53.200;5.814;2023-02-13T01:03:18;28.25;;;20.83;;
59504;SDS011;45321;53.200;5.814;2023-02-13T01:05:45;26.30;;;20.17;;
59504;SDS011;45321;53.200;5.814;2023-02-13T01:08:12;26.92;;;20.48;;
59504;SDS011;45321;53.200;5.814;2023-02-13T01:10:39;28.88;;;20.60;;
59504;SDS011;45321;53.200;5.814;2023-02-13T01:13:06;27.63;;;20.40;;
59504;SDS011;45321;53.200;5.814;2023-02-13T01:15:32;27.70;;;21.20;;
59504;SDS011;45321;53.200;5.814;2023-02-13T01:17:59;29.35;;;20.83;;
59504;SDS011;45321;53.200;5.814;2023-02-13T01:20:25;27.38;;;20.27;;
59504;SDS011;45321;53.200;5.814;2023-02-13T01:22:52;26.67;;;19.75;;
59504;SDS011;45321;53.200;5.814;2023-02-13T01:25:18;26.38;;;20.17;;
59504;SDS011;45321;53.200;5.814;2023-02-13T01:27:44;28.45;;;20.60;;
59504;SDS011;45321;53.200;5.814;2023-02-13T01:30:11;27.23;;;20.17;;
59504;SDS011;45321;53.200;5.814;2023-02-13T01:32:42;28.58;;;20.70;;
59504;SDS011;45321;53.200;5.814;2023-02-13T01:35:09;26.80;;;20.67;;
59504;SDS011;45321;53.200;5.814;2023-02-13T01:37:36;25.95;;;19.75;;
59504;SDS011;45321;53.200;5.814;2023-02-13T01:40:03;27.77;;;20.25;;
59504;SDS011;45321;53.200;5.814;2023-02-13T01:42:30;25.00;;;20.02;;
59504;SDS011;45321;53.200;5.814;2023-02-13T01:47:40;25.92;;;20.38;;
59504;SDS011;45321;53.200;5.814;2023-02-13T01:50:16;28.15;;;20.55;;
59504;SDS011;45321;53.200;5.814;2023-02-13T01:52:48;26.55;;;20.25;;
59504;SDS011;45321;53.200;5.814;2023-02-13T01:55:21;27.15;;;21.23;;
59504;SDS011;45321;53.200;5.814;2023-02-13T01:57:51;27.75;;;20.73;;
59504;SDS011;45321;53.200;5.814;2023-02-13T02:00:35;26.77;;;20.33;;
59504;SDS011;45321;53.200;5.814;2023-02-13T02:03:12;28.65;;;20.80;;
59504;SDS011;45321;53.200;5.814;2023-02-13T02:05:43;27.05;;;20.33;;
59504;SDS011;45321;53.200;5.814;2023-02-13T02:08:09;29.10;;;22.23;;
59504;SDS011;45321;53.200;5.814;2023-02-13T02:10:36;31.17;;;22.13;;
59504;SDS011;45321;53.200;5.814;2023-02-13T02:13:07;28.83;;;20.55;;
59504;SDS011;45321;53.200;5.814;2023-02-13T02:15:40;28.08;;;21.05;;
59504;SDS011;45321;53.200;5.814;2023-02-13T02:18:25;28.92;;;20.98;;
59504;SDS011;45321;53.200;5.814;2023-02-13T02:23:45;28.80;;;20.52;;
59504;SDS011;45321;53.200;5.814;2023-02-13T02:34:55;29.55;;;21.95;;
59504;SDS011;45321;53.200;5.814;2023-02-13T02:45:21;29.08;;;20.75;;
59504;SDS011;45321;53.200;5.814;2023-02-13T02:48:06;28.20;;;21.90;;
59504;SDS011;45321;53.200;5.814;2023-02-13T02:51:09;30.20;;;21.55;;
59504;SDS011;45321;53.200;5.814;2023-02-13T02:56:10;28.77;;;20.45;;
59504;SDS011;45321;53.200;5.814;2023-02-13T02:58:55;30.02;;;21.20;;
59504;SDS011;45321;53.200;5.814;2023-02-13T03:01:47;28.92;;;21.55;;
59504;SDS011;45321;53.200;5.814;2023-02-13T03:04:37;30.65;;;21.75;;
59504;SDS011;45321;53.200;5.814;2023-02-13T03:07:27;28.47;;;21.73;;
59504;SDS011;45321;53.200;5.814;2023-02-13T03:09:57;26.63;;;20.98;;
59504;SDS011;45321;53.200;5.814;2023-02-13T03:13:00;28.63;;;20.92;;
59504;SDS011;45321;53.200;5.814;2023-02-13T03:15:46;29.00;;;21.77;;
59504;SDS011;45321;53.200;5.814;2023-02-13T03:18:37;30.95;;;20.67;;
59504;SDS011;45321;53.200;5.814;2023-02-13T03:24:13;30.15;;;22.23;;
59504;SDS011;45321;53.200;5.814;2023-02-13T03:27:00;31.20;;;22.13;;
59504;SDS011;45321;53.200;5.814;2023-02-13T03:38:23;30.38;;;22.55;;
59504;SDS011;45321;53.200;5.814;2023-02-13T03:41:00;30.77;;;21.50;;
59504;SDS011;45321;53.200;5.814;2023-02-13T03:46:45;28.70;;;21.60;;
59504;SDS011;45321;53.200;5.814;2023-02-13T03:49:18;29.00;;;20.88;;
59504;SDS011;45321;53.200;5.814;2023-02-13T03:52:21;30.23;;;21.83;;
59504;SDS011;45321;53.200;5.814;2023-02-13T03:54:52;30.38;;;22.05;;
59504;SDS011;45321;53.200;5.814;2023-02-13T03:57:42;30.73;;;21.70;;
59504;SDS011;45321;53.200;5.814;2023-02-13T04:00:28;30.67;;;22.17;;
59504;SDS011;45321;53.200;5.814;2023-02-13T04:03:04;30.77;;;22.45;;
59504;SDS011;45321;53.200;5.814;2023-02-13T04:05:39;30.10;;;20.33;;
59504;SDS011;45321;53.200;5.814;2023-02-13T04:08:11;33.85;;;23.20;;
59504;SDS011;45321;53.200;5.814;2023-02-13T04:10:40;31.35;;;21.55;;
59504;SDS011;45321;53.200;5.814;2023-02-13T04:13:16;32.15;;;22.52;;
59504;SDS011;45321;53.200;5.814;2023-02-13T04:15:49;30.33;;;21.95;;
59504;SDS011;45321;53.200;5.814;2023-02-13T04:18:48;30.58;;;22.15;;
59504;SDS011;45321;53.200;5.814;2023-02-13T04:21:16;31.05;;;22.58;;
59504;SDS011;45321;53.200;5.814;2023-02-13T04:23:42;32.78;;;23.67;;
59504;SDS011;45321;53.200;5.814;2023-02-13T04:26:16;32.33;;;23.02;;
59504;SDS011;45321;53.200;5.814;2023-02-13T04:28:43;31.40;;;22.85;;
59504;SDS011;45321;53.200;5.814;2023-02-13T04:31:09;31.75;;;22.58;;
59504;SDS011;45321;53.200;5.814;2023-02-13T04:33:35;29.00;;;21.30;;
59504;SDS011;45321;53.200;5.814;2023-02-13T04:36:00;32.45;;;22.15;;
59504;SDS011;45321;53.200;5.814;2023-02-13T04:38:26;35.92;;;23.67;;
59504;SDS011;45321;53.200;5.814;2023-02-13T04:40:52;34.35;;;23.52;;
59504;SDS011;45321;53.200;5.814;2023-02-13T04:43:17;32.38;;;22.27;;
59504;SDS011;45321;53.200;5.814;2023-02-13T04:45:46;34.45;;;22.90;;
59504;SDS011;45321;53.200;5.814;2023-02-13T04:48:13;31.77;;;22.85;;
59504;SDS011;45321;53.200;5.814;2023-02-13T04:50:39;33.20;;;23.27;;
59504;SDS011;45321;53.200;5.814;2023-02-13T04:53:04;33.45;;;23.98;;
59504;SDS011;45321;53.200;5.814;2023-02-13T04:55:30;35.13;;;23.50;;
59504;SDS011;45321;53.200;5.814;2023-02-13T04:57:56;33.13;;;23.23;;
59504;SDS011;45321;53.200;5.814;2023-02-13T05:00:23;32.78;;;23.70;;
59504;SDS011;45321;53.200;5.814;2023-02-13T05:02:50;32.97;;;23.00;;
59504;SDS011;45321;53.200;5.814;2023-02-13T05:05:16;34.83;;;24.45;;
59504;SDS011;45321;53.200;5.814;2023-02-13T05:07:43;33.35;;;22.58;;
59504;SDS011;45321;53.200;5.814;2023-02-13T05:10:10;33.88;;;22.90;;
59504;SDS011;45321;53.200;5.814;2023-02-13T05:12:36;37.17;;;24.92;;
59504;SDS011;45321;53.200;5.814;2023-02-13T05:15:02;32.63;;;23.15;;
59504;SDS011;45321;53.200;5.814;2023-02-13T05:17:29;36.42;;;24.75;;
59504;SDS011;45321;53.200;5.814;2023-02-13T05:19:55;34.97;;;24.38;;
59504;SDS011;45321;53.200;5.814;2023-02-13T05:22:21;32.50;;;24.17;;
59504;SDS011;45321;53.200;5.814;2023-02-13T05:25:07;34.35;;;23.35;;
59504;SDS011;45321;53.200;5.814;2023-02-13T05:27:32;32.92;;;23.17;;
59504;SDS011;45321;53.200;5.814;2023-02-13T05:29:58;33.10;;;23.25;;
59504;SDS011;45321;53.200;5.814;2023-02-13T05:32:24;34.03;;;23.75;;
59504;SDS011;45321;53.200;5.814;2023-02-13T05:34:50;34.97;;;24.35;;
59504;SDS011;45321;53.200;5.814;2023-02-13T05:37:15;30.77;;;22.67;;
59504;SDS011;45321;53.200;5.814;2023-02-13T05:39:41;34.47;;;23.75;;
59504;SDS011;45321;53.200;5.814;2023-02-13T05:42:07;33.42;;;24.30;;
59504;SDS011;45321;53.200;5.814;2023-02-13T05:44:33;34.08;;;23.27;;
59504;SDS011;45321;53.200;5.814;2023-02-13T05:46:58;35.67;;;24.33;;
59504;SDS011;45321;53.200;5.814;2023-02-13T05:49:24;36.22;;;24.13;;
59504;SDS011;45321;53.200;5.814;2023-02-13T05:51:50;36.20;;;25.38;;
59504;SDS011;45321;53.200;5.814;2023-02-13T05:54:16;36.92;;;24.25;;
59504;SDS011;45321;53.200;5.814;2023-02-13T05:56:42;32.90;;;23.67;;
59504;SDS011;45321;53.200;5.814;2023-02-13T05:59:08;32.35;;;23.65;;
59504;SDS011;45321;53.200;5.814;2023-02-13T06:01:34;35.90;;;25.38;;
59504;SDS011;45321;53.200;5.814;2023-02-13T06:04:00;34.22;;;22.95;;
59504;SDS011;45321;53.200;5.814;2023-02-13T06:06:25;36.38;;;24.52;;
59504;SDS011;45321;53.200;5.814;2023-02-13T06:08:52;33.47;;;23.85;;
59504;SDS011;45321;53.200;5.814;2023-02-13T06:11:17;32.92;;;23.38;;
59504;SDS011;45321;53.200;5.814;2023-02-13T06:13:43;42.78;;;25.90;;
59504;SDS011;45321;53.200;5.814;2023-02-13T06:16:11;36.00;;;24.98;;
59504;SDS011;45321;53.200;5.814;2023-02-13T06:18:37;33.45;;;23.92;;
59504;SDS011;45321;53.200;5.814;2023-02-13T06:21:03;35.53;;;25.30;;
59504;SDS011;45321;53.200;5.814;2023-02-13T06:23:29;35.67;;;25.23;;
59504;SDS011;45321;53.200;5.814;2023-02-13T06:25:56;35.33;;;23.55;;
59504;SDS011;45321;53.200;5.814;2023-02-13T06:28:25;35.03;;;24.13;;
59504;SDS011;45321;53.200;5.814;2023-02-13T06:30:51;37.95;;;25.20;;
59504;SDS011;45321;53.200;5.814;2023-02-13T06:33:17;36.97;;;25.52;;
59504;SDS011;45321;53.200;5.814;2023-02-13T06:35:42;34.25;;;24.02;;
59504;SDS011;45321;53.200;5.814;2023-02-13T06:38:08;34.47;;;25.02;;
59504;SDS011;45321;53.200;5.814;2023-02-13T06:40:34;34.47;;;25.17;;
59504;SDS011;45321;53.200;5.814;2023-02-13T06:42:59;35.83;;;25.05;;
59504;SDS011;45321;53.200;5.814;2023-02-13T06:45:25;38.78;;;25.40;;
59504;SDS011;45321;53.200;5.814;2023-02-13T06:47:51;33.88;;;23.55;;
59504;SDS011;45321;53.200;5.814;2023-02-13T06:50:17;36.63;;;24.92;;
59504;SDS011;45321;53.200;5.814;2023-02-13T06:52:46;33.88;;;24.08;;
59504;SDS011;45321;53.200;5.814;2023-02-13T06:55:14;35.85;;;24.52;;
59504;SDS011;45321;53.200;5.814;2023-02-13T06:57:44;35.92;;;24.70;;
59504;SDS011;45321;53.200;5.814;2023-02-13T07:00:11;35.83;;;25.27;;
59504;SDS011;45321;53.200;5.814;2023-02-13T07:02:39;37.35;;;24.92;;
59504;SDS011;45321;53.200;5.814;2023-02-13T07:05:05;35.28;;;24.35;;
59504;SDS011;45321;53.200;5.814;2023-02-13T07:07:35;36.35;;;25.33;;
59504;SDS011;45321;53.200;5.814;2023-02-13T07:10:02;35.00;;;24.42;;
59504;SDS011;45321;53.200;5.814;2023-02-13T07:12:28;38.13;;;26.25;;
59504;SDS011;45321;53.200;5.814;2023-02-13T07:14:56;35.50;;;24.30;;
59504;SDS011;45321;53.200;5.814;2023-02-13T07:17:22;35.70;;;24.73;;
59504;SDS011;45321;53.200;5.814;2023-02-13T07:19:48;39.85;;;25.42;;
59504;SDS011;45321;53.200;5.814;2023-02-13T07:22:14;39.03;;;25.08;;
59504;SDS011;45321;53.200;5.814;2023-02-13T07:24:39;36.22;;;24.60;;
59504;SDS011;45321;53.200;5.814;2023-02-13T07:27:05;36.85;;;25.60;;
59504;SDS011;45321;53.200;5.814;2023-02-13T07:29:31;38.65;;;26.77;;
59504;SDS011;45321;53.200;5.814;2023-02-13T07:31:56;44.10;;;27.10;;
59504;SDS011;45321;53.200;5.814;2023-02-13T07:34:22;38.15;;;25.50;;
59504;SDS011;45321;53.200;5.814;2023-02-13T07:36:48;35.92;;;24.55;;
59504;SDS011;45321;53.200;5.814;2023-02-13T07:39:14;34.38;;;24.95;;
59504;SDS011;45321;53.200;5.814;2023-02-13T07:41:39;38.90;;;25.30;;
59504;SDS011;45321;53.200;5.814;2023-02-13T07:44:05;35.78;;;24.90;;
59504;SDS011;45321;53.200;5.814;2023-02-13T07:46:31;36.38;;;24.65;;
59504;SDS011;45321;53.200;5.814;2023-02-13T07:48:57;37.90;;;23.98;;
59504;SDS011;45321;53.200;5.814;2023-02-13T07:51:23;37.22;;;24.30;;
59504;SDS011;45321;53.200;5.814;2023-02-13T07:53:50;36.55;;;24.77;;
59504;SDS011;45321;53.200;5.814;2023-02-13T07:56:16;33.83;;;23.42;;
59504;SDS011;45321;53.200;5.814;2023-02-13T07:58:42;36.63;;;24.65;;
59504;SDS011;45321;53.200;5.814;2023-02-13T08:01:10;36.58;;;24.20;;
59504;SDS011;45321;53.200;5.814;2023-02-13T08:03:37;34.30;;;22.42;;
59504;SDS011;45321;53.200;5.814;2023-02-13T08:06:04;36.85;;;23.98;;
59504;SDS011;45321;53.200;5.814;2023-02-13T08:08:30;33.92;;;22.60;;
59504;SDS011;45321;53.200;5.814;2023-02-13T08:10:56;34.30;;;24.10;;
59504;SDS011;45321;53.200;5.814;2023-02-13T08:13:46;37.78;;;24.58;;
59504;SDS011;45321;53.200;5.814;2023-02-13T08:16:11;35.45;;;24.60;;
59504;SDS011;45321;53.200;5.814;2023-02-13T08:18:37;36.47;;;23.55;;
59504;SDS011;45321;53.200;5.814;2023-02-13T08:21:03;34.47;;;23.90;;
59504;SDS011;45321;53.200;5.814;2023-02-13T08:23:29;33.70;;;23.23;;
59504;SDS011;45321;53.200;5.814;2023-02-13T08:25:57;31.80;;;23.63;;
59504;SDS011;45321;53.200;5.814;2023-02-13T08:28:24;32.92;;;22.17;;
59504;SDS011;45321;53.200;5.814;2023-02-13T08:30:49;34.15;;;23.77;;
59504;SDS011;45321;53.200;5.814;2023-02-13T08:33:15;36.22;;;23.60;;
59504;SDS011;45321;53.200;5.814;2023-02-13T08:35:41;37.53;;;24.30;;
59504;SDS011;45321;53.200;5.814;2023-02-13T08:38:08;40.88;;;26.50;;
59504;SDS011;45321;53.200;5.814;2023-02-13T08:40:34;36.28;;;23.13;;
59504;SDS011;45321;53.200;5.814;2023-02-13T08:43:03;34.67;;;23.27;;
59504;SDS011;45321;53.200;5.814;2023-02-13T08:45:30;34.00;;;24.33;;
59504;SDS011;45321;53.200;5.814;2023-02-13T08:47:59;32.33;;;22.38;;
59504;SDS011;45321;53.200;5.814;2023-02-13T08:50:26;34.78;;;22.20;;
59504;SDS011;45321;53.200;5.814;2023-02-13T08:52:52;36.95;;;23.67;;
59504;SDS011;45321;53.200;5.814;2023-02-13T08:55:18;37.75;;;24.85;;
59504;SDS011;45321;53.200;5.814;2023-02-13T08:57:44;32.72;;;22.80;;
59504;SDS011;45321;53.200;5.814;2023-02-13T09:00:10;35.33;;;22.80;;
59504;SDS011;45321;53.200;5.814;2023-02-13T09:02:36;36.30;;;23.23;;
59504;SDS011;45321;53.200;5.814;2023-02-13T09:05:02;36.35;;;23.10;;
59504;SDS011;45321;53.200;5.814;2023-02-13T09:07:28;36.72;;;23.58;;
59504;SDS011;45321;53.200;5.814;2023-02-13T09:09:54;35.72;;;23.70;;
59504;SDS011;45321;53.200;5.814;2023-02-13T09:12:19;38.72;;;24.05;;
59504;SDS011;45321;53.200;5.814;2023-02-13T09:14:46;35.67;;;24.15;;
59504;SDS011;45321;53.200;5.814;2023-02-13T09:17:12;39.20;;;23.92;;
59504;SDS011;45321;53.200;5.814;2023-02-13T09:19:42;35.53;;;24.75;;
59504;SDS011;45321;53.200;5.814;2023-02-13T09:22:08;37.20;;;24.35;;
59504;SDS011;45321;53.200;5.814;2023-02-13T09:24:33;33.95;;;22.83;;
59504;SDS011;45321;53.200;5.814;2023-02-13T09:26:59;33.70;;;22.17;;
59504;SDS011;45321;53.200;5.814;2023-02-13T09:29:25;34.00;;;23.08;;
59504;SDS011;45321;53.200;5.814;2023-02-13T09:31:55;33.67;;;22.83;;
59504;SDS011;45321;53.200;5.814;2023-02-13T09:34:21;36.60;;;23.67;;
59504;SDS011;45321;53.200;5.814;2023-02-13T09:36:50;36.75;;;23.17;;
59504;SDS011;45321;53.200;5.814;2023-02-13T09:39:19;42.08;;;24.33;;
59504;SDS011;45321;53.200;5.814;2023-02-13T09:41:46;36.33;;;22.58;;
59504;SDS011;45321;53.200;5.814;2023-02-13T09:44:15;37.10;;;24.00;;
59504;SDS011;45321;53.200;5.814;2023-02-13T09:49:56;37.27;;;22.20;;
59504;SDS011;45321;53.200;5.814;2023-02-13T09:52:27;34.65;;;22.08;;
59504;SDS011;45321;53.200;5.814;2023-02-13T09:55:15;38.63;;;24.60;;
59504;SDS011;45321;53.200;5.814;2023-02-13T09:58:01;37.30;;;23.75;;
59504;SDS011;45321;53.200;5.814;2023-02-13T10:00:50;40.55;;;24.52;;
59504;SDS011;45321;53.200;5.814;2023-02-13T10:05:58;33.83;;;23.40;;
59504;SDS011;45321;53.200;5.814;2023-02-13T10:11:07;35.42;;;23.40;;
59504;SDS011;45321;53.200;5.814;2023-02-13T10:13:56;40.05;;;23.60;;
59504;SDS011;45321;53.200;5.814;2023-02-13T10:16:28;34.92;;;22.70;;
59504;SDS011;45321;53.200;5.814;2023-02-13T10:19:04;34.25;;;22.60;;
59504;SDS011;45321;53.200;5.814;2023-02-13T10:21:57;32.70;;;21.60;;
59504;SDS011;45321;53.200;5.814;2023-02-13T10:24:27;34.03;;;22.98;;
59504;SDS011;45321;53.200;5.814;2023-02-13T10:27:01;34.78;;;22.40;;
59504;SDS011;45321;53.200;5.814;2023-02-13T10:29:55;35.50;;;21.75;;
59504;SDS011;45321;53.200;5.814;2023-02-13T10:32:59;34.05;;;22.20;;
59504;SDS011;45321;53.200;5.814;2023-02-13T10:38:35;34.65;;;21.45;;
59504;SDS011;45321;53.200;5.814;2023-02-13T10:46:53;35.67;;;22.15;;
59504;SDS011;45321;53.200;5.814;2023-02-13T10:49:52;32.50;;;20.58;;
59504;SDS011;45321;53.200;5.814;2023-02-13T10:58:21;31.83;;;21.15;;
59504;SDS011;45321;53.200;5.814;2023-02-13T11:01:01;33.92;;;21.02;;
59504;SDS011;45321;53.200;5.814;2023-02-13T11:03:40;33.58;;;21.15;;
59504;SDS011;45321;53.200;5.814;2023-02-13T11:06:07;32.20;;;21.95;;
59504;SDS011;45321;53.200;5.814;2023-02-13T11:08:43;32.35;;;21.58;;
59504;SDS011;45321;53.200;5.814;2023-02-13T11:11:30;32.33;;;21.00;;
59504;SDS011;45321;53.200;5.814;2023-02-13T11:16:39;30.58;;;20.80;;
59504;SDS011;45321;53.200;5.814;2023-02-13T11:19:21;34.08;;;21.92;;
59504;SDS011;45321;53.200;5.814;2023-02-13T11:21:52;31.45;;;19.52;;
59504;SDS011;45321;53.200;5.814;2023-02-13T11:24:22;29.42;;;20.08;;
59504;SDS011;45321;53.200;5.814;2023-02-13T11:26:56;32.83;;;19.17;;
59504;SDS011;45321;53.200;5.814;2023-02-13T11:29:25;30.48;;;20.25;;
59504;SDS011;45321;53.200;5.814;2023-02-13T11:32:01;31.40;;;20.23;;
59504;SDS011;45321;53.200;5.814;2023-02-13T11:34:28;35.80;;;22.52;;
59504;SDS011;45321;53.200;5.814;2023-02-13T11:39:42;32.40;;;20.75;;
59504;SDS011;45321;53.200;5.814;2023-02-13T11:42:16;30.50;;;20.35;;
59504;SDS011;45321;53.200;5.814;2023-02-13T11:45:03;32.53;;;21.48;;
59504;SDS011;45321;53.200;5.814;2023-02-13T11:47:50;29.67;;;20.58;;
59504;SDS011;45321;53.200;5.814;2023-02-13T11:50:24;35.05;;;21.60;;
59504;SDS011;45321;53.200;5.814;2023-02-13T11:52:54;33.13;;;21.23;;
59504;SDS011;45321;53.200;5.814;2023-02-13T11:55:28;31.85;;;20.02;;
59504;SDS011;45321;53.200;5.814;2023-02-13T12:00:34;31.33;;;20.83;;
59504;SDS011;45321;53.200;5.814;2023-02-13T12:03:02;31.10;;;21.00;;
59504;SDS011;45321;53.200;5.814;2023-02-13T12:08:28;33.80;;;21.73;;
59504;SDS011;45321;53.200;5.814;2023-02-13T12:10:55;32.50;;;20.95;;
59504;SDS011;45321;53.200;5.814;2023-02-13T12:16:01;30.83;;;20.48;;
59504;SDS011;45321;53.200;5.814;2023-02-13T12:18:36;34.08;;;21.77;;
59504;SDS011;45321;53.200;5.814;2023-02-13T12:31:59;36.17;;;21.73;;
59504;SDS011;45321;53.200;5.814;2023-02-13T12:40:27;28.48;;;19.75;;
59504;SDS011;45321;53.200;5.814;2023-02-13T12:43:06;32.03;;;20.02;;
59504;SDS011;45321;53.200;5.814;2023-02-13T12:45:48;35.30;;;22.02;;
59504;SDS011;45321;53.200;5.814;2023-02-13T12:48:33;30.35;;;21.17;;
59504;SDS011;45321;53.200;5.814;2023-02-13T12:51:27;33.60;;;21.92;;
59504;SDS011;45321;53.200;5.814;2023-02-13T13:19:27;37.25;;;23.85;;
59504;SDS011;45321;53.200;5.814;2023-02-13T13:21:59;32.73;;;21.17;;
59504;SDS011;45321;53.200;5.814;2023-02-13T13:27:24;35.03;;;22.35;;
59504;SDS011;45321;53.200;5.814;2023-02-13T13:30:00;34.78;;;21.80;;
59504;SDS011;45321;53.200;5.814;2023-02-13T13:32:30;33.00;;;22.92;;
59504;SDS011;45321;53.200;5.814;2023-02-13T13:34:57;41.42;;;24.02;;
59504;SDS011;45321;53.200;5.814;2023-02-13T13:37:44;31.10;;;20.48;;
59504;SDS011;45321;53.200;5.814;2023-02-13T13:49:06;33.63;;;20.95;;
59504;SDS011;45321;53.200;5.814;2023-02-13T13:51:39;35.90;;;22.50;;
59504;SDS011;45321;53.200;5.814;2023-02-13T14:07:35;35.85;;;22.88;;
59504;SDS011;45321;53.200;5.814;2023-02-13T14:10:03;34.35;;;21.88;;
59504;SDS011;45321;53.200;5.814;2023-02-13T14:14:56;33.78;;;23.67;;
59504;SDS011;45321;53.200;5.814;2023-02-13T14:22:45;35.40;;;24.35;;
59504;SDS011;45321;53.200;5.814;2023-02-13T14:25:24;33.22;;;23.15;;
59504;SDS011;45321;53.200;5.814;2023-02-13T14:28:34;36.20;;;23.98;;
59504;SDS011;45321;53.200;5.814;2023-02-13T14:30:51;36.50;;;24.67;;
59504;SDS011;45321;53.200;5.814;2023-02-13T14:33:29;39.70;;;26.52;;
59504;SDS011;45321;53.200;5.814;2023-02-13T14:36:00;33.15;;;24.63;;
59504;SDS011;45321;53.200;5.814;2023-02-13T14:40:58;33.35;;;24.63;;
59504;SDS011;45321;53.200;5.814;2023-02-13T14:43:31;34.22;;;23.85;;
59504;SDS011;45321;53.200;5.814;2023-02-13T14:46:19;36.17;;;25.98;;
59504;SDS011;45321;53.200;5.814;2023-02-13T14:49:20;35.72;;;26.65;;
59504;SDS011;45321;53.200;5.814;2023-02-13T14:51:50;37.97;;;25.92;;
59504;SDS011;45321;53.200;5.814;2023-02-13T14:57:04;36.35;;;26.50;;
59504;SDS011;45321;53.200;5.814;2023-02-13T14:59:37;35.78;;;27.67;;
59504;SDS011;45321;53.200;5.814;2023-02-13T15:02:12;33.83;;;25.90;;
59504;SDS011;45321;53.200;5.814;2023-02-13T15:04:47;39.13;;;28.05;;
59504;SDS011;45321;53.200;5.814;2023-02-13T15:07:25;36.67;;;26.07;;
59504;SDS011;45321;53.200;5.814;2023-02-13T15:09:56;37.85;;;26.75;;
59504;SDS011;45321;53.200;5.814;2023-02-13T15:12:29;39.45;;;27.80;;
59504;SDS011;45321;53.200;5.814;2023-02-13T15:15:00;37.70;;;27.52;;
59504;SDS011;45321;53.200;5.814;2023-02-13T15:17:28;33.25;;;25.30;;
59504;SDS011;45321;53.200;5.814;2023-02-13T15:20:05;32.38;;;26.30;;
59504;SDS011;45321;53.200;5.814;2023-02-13T15:25:19;36.90;;;26.17;;
59504;SDS011;45321;53.200;5.814;2023-02-13T15:28:07;36.83;;;28.98;;
59504;SDS011;45321;53.200;5.814;2023-02-13T15:30:51;35.70;;;28.33;;
59504;SDS011;45321;53.200;5.814;2023-02-13T15:33:44;40.28;;;27.42;;
59504;SDS011;45321;53.200;5.814;2023-02-13T15:36:19;37.83;;;28.13;;
59504;SDS011;45321;53.200;5.814;2023-02-13T15:38:46;34.92;;;27.10;;
59504;SDS011;45321;53.200;5.814;2023-02-13T15:41:21;37.35;;;28.08;;
59504;SDS011;45321;53.200;5.814;2023-02-13T15:43:52;36.72;;;27.58;;
59504;SDS011;45321;53.200;5.814;2023-02-13T15:46:25;36.97;;;28.75;;
59504;SDS011;45321;53.200;5.814;2023-02-13T15:48:54;36.83;;;28.17;;
59504;SDS011;45321;53.200;5.814;2023-02-13T15:51:44;38.03;;;29.27;;
59504;SDS011;45321;53.200;5.814;2023-02-13T15:54:27;39.33;;;30.00;;
59504;SDS011;45321;53.200;5.814;2023-02-13T15:56:58;37.25;;;29.23;;
59504;SDS011;45321;53.200;5.814;2023-02-13T15:59:36;37.17;;;28.17;;
59504;SDS011;45321;53.200;5.814;2023-02-13T16:02:03;36.42;;;27.70;;
59504;SDS011;45321;53.200;5.814;2023-02-13T16:04:36;39.28;;;29.77;;
59504;SDS011;45321;53.200;5.814;2023-02-13T16:07:06;38.55;;;30.17;;
59504;SDS011;45321;53.200;5.814;2023-02-13T16:09:37;38.95;;;29.55;;
59504;SDS011;45321;53.200;5.814;2023-02-13T16:12:24;40.95;;;31.70;;
59504;SDS011;45321;53.200;5.814;2023-02-13T16:14:53;44.65;;;31.45;;
59504;SDS011;45321;53.200;5.814;2023-02-13T16:17:37;40.88;;;30.25;;
59504;SDS011;45321;53.200;5.814;2023-02-13T16:20:07;40.72;;;30.05;;
59504;SDS011;45321;53.200;5.814;2023-02-13T16:22:44;38.28;;;29.88;;
59504;SDS011;45321;53.200;5.814;2023-02-13T16:27:51;41.38;;;31.50;;
59504;SDS011;45321;53.200;5.814;2023-02-13T16:30:29;40.35;;;31.48;;
59504;SDS011;45321;53.200;5.814;2023-02-13T16:35:45;41.45;;;30.48;;
59504;SDS011;45321;53.200;5.814;2023-02-13T16:43:53;47.47;;;34.22;;
59504;SDS011;45321;53.200;5.814;2023-02-13T16:54:05;44.13;;;33.67;;
59504;SDS011;45321;53.200;5.814;2023-02-13T16:59:21;45.90;;;34.27;;
59504;SDS011;45321;53.200;5.814;2023-02-13T17:04:37;43.90;;;32.35;;
59504;SDS011;45321;53.200;5.814;2023-02-13T17:07:03;41.65;;;32.47;;
59504;SDS011;45321;53.200;5.814;2023-02-13T17:09:35;40.00;;;32.20;;
59504;SDS011;45321;53.200;5.814;2023-02-13T17:12:01;42.53;;;32.45;;
59504;SDS011;45321;53.200;5.814;2023-02-13T17:14:26;40.65;;;32.03;;
59504;SDS011;45321;53.200;5.814;2023-02-13T17:16:52;44.92;;;33.92;;
59504;SDS011;45321;53.200;5.814;2023-02-13T17:19:18;42.92;;;34.15;;
59504;SDS011;45321;53.200;5.814;2023-02-13T17:21:44;43.90;;;33.53;;
59504;SDS011;45321;53.200;5.814;2023-02-13T17:24:13;40.45;;;33.35;;
59504;SDS011;45321;53.200;5.814;2023-02-13T17:26:42;45.45;;;34.15;;
59504;SDS011;45321;53.200;5.814;2023-02-13T17:29:08;42.85;;;31.77;;
59504;SDS011;45321;53.200;5.814;2023-02-13T17:31:33;43.80;;;33.03;;
59504;SDS011;45321;53.200;5.814;2023-02-13T17:34:00;40.80;;;32.05;;
59504;SDS011;45321;53.200;5.814;2023-02-13T17:36:29;39.83;;;32.38;;
59504;SDS011;45321;53.200;5.814;2023-02-13T17:38:54;39.30;;;31.75;;
59504;SDS011;45321;53.200;5.814;2023-02-13T17:41:23;43.90;;;33.83;;
59504;SDS011;45321;53.200;5.814;2023-02-13T17:43:48;42.17;;;32.03;;
59504;SDS011;45321;53.200;5.814;2023-02-13T17:46:14;46.42;;;34.80;;
59504;SDS011;45321;53.200;5.814;2023-02-13T17:48:41;42.42;;;33.80;;